EW9901 Weather Reports


time (UTC)temp
C
wind
direction
speed
KPH
gust
KPH
rain 1hr
cm
rain 24hr
cm
rain mn
cm
humidity
%
barometer
mb
20200226020028 2 271 1.6 9.7 0.05 0.18 0.08 85 991.1
20200226014529 2 279 1.6 4.8 0.05 0.20 0.08 85 991.4
20200226013115 2 284 1.6 6.4 0.05 0.18 0.05 84 991.7
20200226011509 3 300 1.6 9.7 0.05 0.18 0.05 83 991.9
20200226010058 3 274 6.4 17.7 0.05 0.15 0.05 81 992.2
20200226004559 3 315 8.0 17.7 0.03 0.15 0.03 79 992.2
20200226003143 3 320 6.4 12.9 0.00 0.15 0.00 77 992.1
20200226001601 3 302 4.8 12.9 0.00 0.15 0.00 75 992.0
20200226000106 3 313 3.2 12.9 0.00 0.15 0.00 75 991.8
20200225234603 3 290 1.6 11.3 0.00 0.15 0.00 75 991.8
20200225233207 3 273 3.2 8.0 0.00 0.15 0.00 75 991.8
20200225231513 3 280 3.2 11.3 0.00 0.15 0.00 75 992.0
20200225230103 3 279 1.6 11.3 0.00 0.15 0.00 75 992.2
20200225224517 3 257 3.2 12.9 0.00 0.15 0.15 75 992.2
20200225223120 3 277 0.0 6.4 0.00 0.15 0.15 74 992.3
20200225221646 3 279 3.2 11.3 0.00 0.15 0.15 74 992.4
20200225220036 3 266 3.2 6.4 0.00 0.15 0.15 73 992.6
20200225214631 3 272 3.2 8.0 0.00 0.23 0.15 73 992.9
20200225213031 3 283 3.2 8.0 0.00 0.23 0.15 72 993.0
20200225211509 3 302 4.8 11.3 0.00 0.23 0.15 72 993.2
20200225210032 3 294 3.2 17.7 0.00 0.23 0.15 72 993.4
20200225204531 4 268 3.2 12.9 0.00 0.33 0.15 71 993.5
20200225203044 4 277 1.6 11.3 0.00 0.33 0.15 70 993.4
20200225201513 5 290 3.2 14.5 0.00 0.33 0.15 69 993.5
20200225200105 5 277 3.2 8.0 0.00 0.33 0.15 68 993.7
20200225194551 5 296 4.8 12.9 0.00 0.53 0.15 67 993.7
20200225193025 5 313 4.8 14.5 0.00 0.53 0.15 66 993.7
20200225191745 5 274 4.8 12.9 0.00 0.53 0.15 65 993.8
20200225190024 -17 264 4.8 9.7 0.00 0.53 0.15 993.9
20200225184546 6 306 4.8 12.9 0.00 0.66 0.15 62 993.9
20200225183125 6 296 6.4 24.1 0.00 0.66 0.15 61 994.1
20200225181508 6 310 9.7 24.1 0.00 0.66 0.15 60 994.3
20200225180124 6 330 11.3 27.4 0.00 0.66 0.15 60 994.3
20200225174548 7 312 12.9 25.7 0.00 0.69 0.15 59 994.4
20200225173112 7 299 11.3 40.2 0.00 0.69 0.15 59 994.4
20200225171515 7 318 12.9 35.4 0.00 0.69 0.15 61 994.4
20200225170019 7 327 11.3 30.6 0.00 0.69 0.15 62 994.2
20200225164611 7 329 6.4 24.1 0.00 0.69 0.15 62 994.1
20200225163053 8 320 11.3 30.6 0.00 0.69 0.15 61 994.1
20200225161535 8 325 17.7 40.2 0.00 0.69 0.15 60 994.1
20200225160127 8 355 16.1 30.6 0.00 0.69 0.15 62 994.2
20200225154529 9 289 11.3 32.2 0.00 0.69 0.15 62 994.1
20200225153056 9 304 17.7 33.8 0.00 0.69 0.15 62 994.2
20200225151501 9 294 19.3 37.0 0.00 0.69 0.15 62 994.1
20200225150101 10 317 12.9 30.6 0.00 0.69 0.15 61 994.0
20200225144540 10 327 17.7 30.6 0.00 0.69 0.15 61 994.1
20200225143058 10 271 16.1 32.2 0.00 0.69 0.15 61 994.2
20200225141509 10 328 16.1 32.2 0.00 0.69 0.15 60 994.2
20200225140110 10 326 6.4 25.7 0.00 0.69 0.15 61 994.3
20200225134547 9 328 14.5 29.0 0.00 0.69 0.15 63 994.4
20200225133021 9 329 11.3 30.6 0.00 0.69 0.15 63 994.5
20200225131512 10 305 16.1 32.2 0.00 0.69 0.15 66 994.8
20200225130104 10 45 11.3 25.7 0.00 0.69 0.15 69 994.9
20200225124551 8 310 12.9 24.1 0.00 0.69 0.15 71 995.1
20200225123036 8 330 12.9 27.4 0.03 0.69 0.15 74 995.3
20200225120042 7 294 11.3 29.0 0.05 0.69 0.15 81 995.7
20200225114522 7 283 16.1 33.8 0.05 0.69 0.15 84 995.9
20200225113018 7 297 8.0 19.3 0.05 0.66 0.15 85 995.8
20200225111508 8 55 1.6 8.0 0.05 0.64 0.13 86 995.6
20200225110058 8 355 1.6 8.0 0.05 0.64 0.13 85 995.9
20200225104617 8 293 1.6 6.4 0.05 0.64 0.13 84 996.0
20200225103026 8 319 0.0 4.8 0.03 0.61 0.10 83 996.0
20200225101526 8 313 1.6 8.0 0.00 0.61 0.08 82 996.2
20200225100056 8 336 4.8 12.9 0.00 0.61 0.08 81 996.1
20200225094608 8 325 4.8 9.7 0.00 0.61 0.08 79 996.3
20200225093025 9 315 8.0 14.5 0.00 0.61 0.08 77 996.3
20200225091643 9 320 6.4 19.3 0.00 0.61 0.08 77 996.5
20200225090049 9 333 8.0 19.3 0.00 0.61 0.08 77 996.6
20200225084602 8 342 6.4 17.7 0.00 0.61 0.08 79 996.8
20200225083024 8 313 3.2 19.3 0.00 0.61 0.08 81 997.0
20200225081512 8 330 4.8 19.3 0.00 0.61 0.08 84 997.0
20200225080043 8 333 0.0 12.9 0.00 0.61 0.08 84 997.0
20200225074654 8 345 6.4 12.9 0.00 0.61 0.08 84 996.9
20200225073025 8 307 4.8 9.7 0.00 0.61 0.08 84 996.9
20200225071644 8 318 3.2 19.3 0.00 0.61 0.08 84 997.1
20200225070016 8 302 9.7 19.3 0.00 0.61 0.08 83 996.8
20200225064514 8 258 8.0 17.7 0.00 0.61 0.08 84 996.9
20200225063042 8 314 9.7 24.1 0.00 0.61 0.08 84 996.8
20200225061509 8 306 14.5 29.0 0.03 0.61 0.08 86 996.6
20200225060037 8 311 9.7 24.1 0.03 0.61 0.08 88 996.6
20200225054605 8 332 8.0 20.9 0.03 0.61 0.08 88 996.4
20200225053016 8 279 8.0 19.3 0.03 0.61 0.08 89 996.6
20200225051724 8 302 8.0 19.3 0.00 0.58 0.05 89 996.6
20200225050028 8 281 8.0 20.9 0.00 0.58 0.05 89 996.6
20200225044537 8 280 8.0 19.3 0.00 0.58 0.05 89 996.9
20200225043043 8 294 8.0 19.3 0.00 0.58 0.05 89 996.9
20200225041517 8 299 8.0 22.5 0.00 0.58 0.05 90 997.0
20200225040055 8 298 8.0 25.7 0.00 0.58 0.05 90 997.1
20200225034536 8 290 11.3 20.9 0.00 0.58 0.05 90 997.1
20200225033150 8 309 8.0 24.1 0.00 0.58 0.05 90 997.2
20200225031517 8 281 9.7 24.1 0.00 0.58 0.05 90 997.2
20200225030051 8 282 8.0 19.3 0.00 0.58 0.05 90 997.3
20200225024529 8 317 6.4 17.7 0.03 0.58 0.05 91 997.5
20200225023027 8 303 11.3 20.9 0.03 0.58 0.05 91 997.7
20200225021511 8 323 8.0 20.9 0.03 0.58 0.05 91 997.8